• Join FlightAware (Why Join?)
  • Login
  • US Flag 
07:16PM EDT


 

Airport Tracker/Info


-or-


 

Live Flight TrackerFlight Track Log ✈ UAL906 ✈ 18-Apr-2014 ✈ EDDF / FRA - KORD

Flight Track Log - Related Links

Times and Time Zones

All times are in EDT time to prevent confusion due to time zone crossing. See the UAL906 flight status page for this flight to view local times or setup timezone preferences in your user account.

Time Position Orientation Groundspeed Altitude Reporting Facility
EDT Latitude Longitude Course Direction KTS MPH feet Rate Location/Type
07:26AM 50.2196 8.0943 308° West  Level FlightAware Approximate
07:27AM 50.2744 7.9297 306° West  Level FlightAware Approximate
07:28AM 50.3443 7.7734 303° West  Level FlightAware Approximate
07:29AM 50.4105 7.6130 303° West  Level FlightAware Approximate
07:30AM 50.4760 7.4517 302° West  Level FlightAware Approximate
07:31AM 50.5393 7.2879 300° West  Level FlightAware Approximate
07:32AM 50.6019 7.1235 304° West  Level FlightAware Approximate
07:33AM 50.6701 6.9643 304° West  Level FlightAware Approximate
07:34AM 50.7349 6.8013 302° West  Level FlightAware Approximate
07:35AM 50.7986 6.6370 302° West  Level FlightAware Approximate
07:36AM 50.8561 6.4670 301° West  Level FlightAware Approximate
07:36AM 50.5887 7.4933 327° Northwest 415 478 24,000  Level FlightAware ADS-B (EDLW / DTM)
07:36AM 50.6526 7.4281 327° Northwest 414 476 25,100 1,320 Climbing FlightAware ADS-B (EDLW / DTM)
07:37AM 50.7168 7.3582 319° Northwest 420 483 25,800 1,080 Climbing FlightAware ADS-B (EDLW / DTM)
07:37AM 50.7419 7.3130 305° West 442 509 26,100 540 Climbing FlightAware ADS-B (EDLW / DTM)
07:38AM 50.7621 7.2487 291° West 475 547 26,200 600 Climbing FlightAware ADS-B (EDLW / DTM)
07:38AM 50.7705 7.1992 282° West 496 571 26,500 1,020 Climbing FlightAware ADS-B (EHRD / RTM)
07:38AM 50.7861 7.0801 285° West 492 566 27,100 1,260 Climbing FlightAware ADS-B (EDKL)
07:39AM 50.8022 6.9710 283° West 493 567 27,900 1,500 Climbing FlightAware ADS-B (EDKL)
07:40AM 50.8257 6.8146 282° West 494 568 28,900 1,320 Climbing FlightAware ADS-B (EDLW / DTM)
07:40AM 50.8413 6.6893 281° West 495 570 29,700 1,140 Climbing FlightAware ADS-B (EDKL)
07:41AM 50.8526 6.6038 283° West 493 567 30,100 1,080 Climbing FlightAware ADS-B (EHRD / RTM)
07:41AM 50.8674 6.5100 283° West 489 563 30,600 1,140 Climbing FlightAware ADS-B
07:41AM 50.8787 6.4390 283° West 490 564 31,000 1,080 Climbing FlightAware ADS-B
07:42AM 50.8921 6.3499 283° West 496 571 31,500 1,020 Climbing FlightAware ADS-B (EDKL)
07:42AM 50.9023 6.2770 282° West 493 567 31,800 1,080 Climbing FlightAware ADS-B
07:43AM 50.9188 6.1644 284° West 493 567 32,400 1,380 Climbing FlightAware ADS-B (EDKL)
07:43AM 50.9253 6.1220 284° West 489 563 32,900 1,500 Climbing FlightAware ADS-B (EDLW / DTM)
07:43AM 50.9294 6.0949 284° West 485 558 33,000 120 Climbing FlightAware ADS-B (EHRD / RTM)
07:44AM 50.9486 5.9664 283° West 485 558 33,000  Level FlightAware ADS-B (EDKL)
07:44AM 50.9611 5.8826 282° West 480 552 33,000  Level FlightAware ADS-B (EHGR / GLZ)
07:44AM 50.9686 5.8311 282° West 480 552 33,000  Level FlightAware ADS-B (EHGR / GLZ)
07:45AM 50.9839 5.7262 282° West 480 552 33,000  Level FlightAware ADS-B
07:45AM 50.9837 5.7276 282° West 480 552 33,000  Level FlightAware ADS-B (EHRD / RTM)
07:45AM 50.9946 5.6528 283° West 482 555 33,000  Level FlightAware ADS-B (EDKL)
07:46AM 51.0109 5.5392 282° West 481 554 33,000  Level FlightAware ADS-B (EHGR / GLZ)
07:46AM 51.0297 5.4071 283° West 485 558 33,000  Level FlightAware ADS-B (EDKL)
07:47AM 51.0438 5.3072 283° West 486 559 33,000  Level FlightAware ADS-B (EDKL)
07:47AM 51.0472 5.2829 282° West 484 557 33,000  Level FlightAware ADS-B (EHGR / GLZ)
07:48AM 51.0637 5.1642 282° West 486 559 33,000  Level FlightAware ADS-B (EHRD / RTM)
07:48AM 51.0800 5.0465 282° West 487 560 33,000  Level FlightAware ADS-B (EHRD / RTM)
07:48AM 51.0839 5.0185 282° West 488 562 33,000  Level FlightAware ADS-B (EHRD / RTM)
07:49AM 51.0987 4.9100 281° West 488 562 33,000  Level FlightAware ADS-B (EHGR / GLZ)
07:49AM 51.1057 4.8594 281° West 489 563 33,000 120 Level FlightAware ADS-B (EHGR / GLZ)
07:50AM 51.1204 4.7506 282° West 489 563 33,100 240 Climbing FlightAware ADS-B (EHGR / GLZ)
07:50AM 51.1344 4.6468 282° West 490 564 33,300 360 Climbing FlightAware ADS-B (EHGR / GLZ)
07:51AM 51.1487 4.5402 281° West 491 565 33,500 360 Climbing FlightAware ADS-B (EHGR / GLZ)
07:51AM 51.1628 4.4345 282° West 495 570 33,700 420 Climbing FlightAware ADS-B (EHGR / GLZ)
07:52AM 51.1811 4.2960 282° West 493 567 34,000 120 Climbing FlightAware ADS-B (EHRD / RTM)
07:53AM 51.2133 4.0481 282° West 493 567 34,000  Level FlightAware ADS-B (EHRD / RTM)
07:53AM 51.2271 3.9407 282° West 494 568 34,000  Level FlightAware ADS-B (EHRD / RTM)
07:54AM 51.2413 3.8294 282° West 496 571 34,000  Level FlightAware ADS-B (EHGR / GLZ)
07:54AM 51.2548 3.7226 281° West 498 573 34,000  Level FlightAware ADS-B (EHGR / GLZ)
07:55AM 51.2681 3.6170 281° West 499 574 34,000  Level FlightAware ADS-B (EHGR / GLZ)
07:55AM 51.2817 3.5074 281° West 499 574 34,000  Level FlightAware ADS-B (EHGR / GLZ)
07:56AM 51.2922 3.4214 281° West 500 575 34,000  Level FlightAware ADS-B (EGLC / LCY)
07:56AM 51.3095 3.2811 281° West 500 575 34,000  Level FlightAware ADS-B (EGLF / FAB)
07:57AM 51.3209 3.1870 280° West 500 575 34,000  Level FlightAware ADS-B (EHGR / GLZ)
07:57AM 51.3256 3.1472 280° West 499 574 34,000  Level FlightAware ADS-B (EGMD / LYX)
07:57AM 51.3327 3.0878 281° West 500 575 34,000  Level FlightAware ADS-B (EGLF / FAB)
07:58AM 51.3420 3.0104 281° West 500 575 34,000  Level FlightAware ADS-B (EHRD / RTM)
07:58AM 51.3542 2.9083 281° West 500 575 34,000  Level FlightAware ADS-B (EGLC / LCY)
07:58AM 51.3563 2.8902 280° West 498 573 34,000  Level FlightAware ADS-B (EGHO)
07:59AM 51.3679 2.7918 281° West 500 575 34,000  Level FlightAware ADS-B (EGLC / LCY)
07:59AM 51.3736 2.7433 281° West 500 575 34,000  Level FlightAware ADS-B (EGLC / LCY)
07:59AM 51.3782 2.7042 280° West 498 573 34,000  Level FlightAware ADS-B (EGMD / LYX)
07:59AM 51.3810 2.6803 280° West 498 573 34,000  Level FlightAware ADS-B (EGMD / LYX)
07:59AM 51.3847 2.6484 280° West 499 574 34,000  Level FlightAware ADS-B (EHGR / GLZ)
08:00AM 51.3914 2.5903 281° West 500 575 34,000  Level FlightAware ADS-B (EGLF / FAB)
08:00AM 51.3983 2.5307 280° West 501 577 34,000  Level FlightAware ADS-B
08:00AM 51.4097 2.4324 280° West 502 578 34,000  Level FlightAware ADS-B (EGLC / LCY)
08:00AM 51.4129 2.4032 280° West 502 578 34,000  Level FlightAware ADS-B
08:00AM 51.4129 2.4032 281° West 501 577 34,000  Level FlightAware ADS-B (EGMD / LYX)
08:01AM 51.4259 2.2892 280° West 504 580 34,000  Level FlightAware ADS-B
08:01AM 51.4254 2.2929 280° West 504 580 34,000  Level FlightAware ADS-B (EGLF / FAB)
08:01AM 51.4299 2.2533 279° West 503 579 34,000  Level FlightAware ADS-B (EHRD / RTM)
08:01AM 51.4368 2.1918 279° West 503 579 34,000  Level FlightAware ADS-B (EHGR / GLZ)
08:02AM 51.4413 2.1515 280° West 505 581 34,000  Level FlightAware ADS-B
08:02AM 51.4448 2.1199 279° West 504 580 34,000  Level FlightAware ADS-B (EGMD / LYX)
08:02AM 51.4541 2.0354 280° West 505 581 34,000  Level FlightAware ADS-B
08:02AM 51.4581 1.9994 280° West 506 582 34,000  Level FlightAware ADS-B (EGLF / FAB)
08:02AM 51.4627 1.9582 279° West 504 580 34,000  Level FlightAware ADS-B (EHGR / GLZ)
08:03AM 51.4680 1.9096 280° West 506 582 34,000  Level FlightAware ADS-B
08:03AM 51.4700 1.8911 280° West 506 582 34,000  Level FlightAware ADS-B (EGLC / LCY)
08:03AM 51.4780 1.8174 280° West 507 583 34,000  Level FlightAware ADS-B (EGLW)
08:03AM 51.4812 1.7879 280° West 506 582 34,000  Level FlightAware ADS-B
08:04AM 51.4895 1.7110 280° West 507 583 34,000  Level FlightAware ADS-B (EGLC / LCY)
08:04AM 51.4943 1.6659 280° West 508 585 34,000  Level FlightAware ADS-B
08:04AM 51.5023 1.5917 280° West 508 585 34,000  Level FlightAware ADS-B (EGLC / LCY)
08:04AM 51.5060 1.5569 280° West 509 586 34,000  Level FlightAware ADS-B (EGLC / LCY)
08:05AM 51.5201 1.4237 280° West 511 588 34,000  Level FlightAware ADS-B (EGLC / LCY)
08:05AM 51.5236 1.3894 280° West 509 586 34,000  Level FlightAware ADS-B
08:05AM 51.5240 1.3857 280° West 511 588 34,000  Level FlightAware ADS-B (EGLC / LCY)
08:05AM 51.5309 1.3200 280° West 511 588 34,000  Level FlightAware ADS-B (EGKK / LGW)
08:05AM 51.5327 1.3021 280° West 511 588 34,000  Level FlightAware ADS-B (EGKK / LGW)
08:06AM 51.5361 1.2700 279° West 512 589 34,000  Level FlightAware ADS-B
08:06AM 51.5443 1.1901 279° West 511 588 34,000  Level FlightAware ADS-B (EGLC / LCY)
08:06AM 51.5480 1.1542 279° West 511 588 34,000  Level FlightAware ADS-B
08:06AM 51.5560 1.0760 279° West 510 587 34,000  Level FlightAware ADS-B (EGSR)
08:07AM 51.5599 1.0365 279° West 509 586 34,000  Level FlightAware ADS-B
08:07AM 51.5674 0.9628 279° West 509 586 34,000  Level FlightAware ADS-B (EGLC / LCY)
08:07AM 51.5715 0.9220 279° West 508 585 34,000  Level FlightAware ADS-B
08:07AM 51.5796 0.8411 279° West 508 585 34,000  Level FlightAware ADS-B (EGMD / LYX)
08:08AM 51.5831 0.8054 279° West 507 583 34,000  Level FlightAware ADS-B
08:08AM 51.5906 0.7303 279° West 507 583 34,000  Level FlightAware ADS-B (EGFH / SWS)
08:08AM 51.5946 0.6895 279° West 507 583 34,000  Level FlightAware ADS-B
08:08AM 51.6014 0.6197 279° West 507 583 34,000  Level FlightAware ADS-B
08:09AM 51.6047 0.5855 279° West 507 583 34,000  Level FlightAware ADS-B (EGLC / LCY)
08:09AM 51.6058 0.5751 279° West 507 583 34,000  Level FlightAware ADS-B
08:09AM 51.6055 0.5774 279° West 507 583 34,000  Level FlightAware ADS-B (EGLC / LCY)
08:09AM 51.6073 0.5588 278° West 506 582 34,000  Level FlightAware ADS-B (EGMD / LYX)
08:09AM 51.6142 0.4881 279° West 508 585 34,000  Level FlightAware ADS-B (EGSR)
08:09AM 51.6167 0.4628 279° West 508 585 34,000  Level FlightAware ADS-B
08:09AM 51.6184 0.4442 278° West 507 583 34,000  Level FlightAware ADS-B (EGHI / SOU)
08:09AM 51.6223 0.4040 278° West 507 583 34,000  Level FlightAware ADS-B (EGKK / LGW)
08:10AM 51.6287 0.3370 279° West 508 585 34,000  Level FlightAware ADS-B
08:10AM 51.6299 0.3243 278° West 507 583 34,000  Level FlightAware ADS-B (EGKK / LGW)
08:10AM 51.6326 0.2960 279° West 508 585 34,000  Level FlightAware ADS-B (EGLF / FAB)
08:10AM 51.6368 0.2514 278° West 506 582 34,000  Level FlightAware ADS-B (EGKK / LGW)
08:10AM 51.6393 0.2215 277° West 508 585 34,000  Level FlightAware ADS-B
08:10AM 51.6400 0.2102 274° West 510 587 34,000  Level FlightAware ADS-B (EGKK / LGW)
08:10AM 51.6409 0.1875 273° West 514 592 34,000  Level FlightAware ADS-B
08:11AM 51.6411 0.1416 269° West 517 595 34,000  Level FlightAware ADS-B
08:11AM 51.6400 0.1085 263° West 523 602 34,000  Level FlightAware ADS-B (EGFH / SWS)
08:11AM 51.6330 0.0223 261° West 525 604 34,000  Level FlightAware ADS-B
08:11AM 51.6272 -0.0353 261° West 524 603 34,000  Level FlightAware ADS-B (EGBK / ORM)
08:12AM 51.6235 -0.0706 260° West 526 605 34,000  Level FlightAware ADS-B (EGDM)
08:12AM 51.6208 -0.0952 260° West 526 605 34,000  Level FlightAware ADS-B
08:12AM 51.6155 -0.1428 261° West 524 603 34,000  Level FlightAware ADS-B (EGHO)
08:12AM 51.6141 -0.1551 261° West 524 603 34,000  Level FlightAware ADS-B (EGKK / LGW)
08:12AM 51.6094 -0.1965 261° West 525 604 34,000  Level FlightAware ADS-B (EGKK / LGW)
08:12AM 51.6079 -0.2096 260° West 526 605 34,000  Level FlightAware ADS-B
08:12AM 51.6050 -0.2357 261° West 525 604 34,000  Level FlightAware ADS-B (EGKK / LGW)
08:13AM 51.5946 -0.3271 260° West 527 606 34,000  Level FlightAware ADS-B
08:13AM 51.5908 -0.3600 260° West 527 606 34,000  Level FlightAware ADS-B (EGDM)
08:13AM 51.5808 -0.4475 260° West 526 605 34,000  Level FlightAware ADS-B
08:13AM 51.5778 -0.4735 260° West 526 605 34,000  Level FlightAware ADS-B (EGLF / FAB)
08:13AM 51.5758 -0.4911 260° West 525 604 34,000  Level FlightAware ADS-B
08:14AM 51.5668 -0.5700 260° West 526 605 34,000  Level FlightAware ADS-B
08:14AM 51.5638 -0.5968 261° West 524 603 34,000  Level FlightAware ADS-B (EGHI / SOU)
08:14AM 51.5631 -0.6022 260° West 525 604 34,000  Level FlightAware ADS-B
08:14AM 51.5537 -0.6849 260° West 526 605 34,000  Level FlightAware ADS-B
08:14AM 51.5515 -0.7040 260° West 526 605 34,000  Level FlightAware ADS-B (EGNA)
08:14AM 51.5496 -0.7209 260° West 525 604 34,000  Level FlightAware ADS-B
08:15AM 51.5399 -0.8058 260° West 525 604 34,000  Level FlightAware ADS-B
08:15AM 51.5387 -0.8157 260° West 525 604 34,000  Level FlightAware ADS-B (EGLL / LHR)
08:15AM 51.5359 -0.8402 260° West 524 603 34,000  Level FlightAware ADS-B
08:15AM 51.5258 -0.9274 260° West 527 606 34,000  Level FlightAware ADS-B
08:15AM 51.5227 -0.9543 260° West 527 606 34,000  Level FlightAware ADS-B (EGLC / LCY)
08:15AM 51.5194 -0.9834 260° West 527 606 34,000  Level FlightAware ADS-B (EGLF / FAB)
08:16AM 51.5121 -1.0462 259° West 527 606 34,000  Level FlightAware ADS-B
08:16AM 51.5091 -1.0716 260° West 527 606 34,000  Level FlightAware ADS-B
08:16AM 51.5072 -1.0876 259° West 528 608 34,000  Level FlightAware ADS-B (EGHS)
08:16AM 51.5029 -1.1245 260° West 528 608 34,000  Level FlightAware ADS-B (EGDM)
08:16AM 51.5016 -1.1384 261° West 526 605 34,000  Level FlightAware ADS-B
08:16AM 51.4984 -1.1993 268° West 521 600 34,000  Level FlightAware ADS-B
08:17AM 51.4984 -1.2270 271° West 519 597 34,000  Level FlightAware ADS-B
08:17AM 51.4985 -1.2331 271° West 518 596 34,000  Level FlightAware ADS-B (EGBK / ORM)
08:17AM 51.4986 -1.2392 273° West 517 595 34,000  Level FlightAware ADS-B
08:17AM 51.5001 -1.2697 277° West 515 593 34,000  Level FlightAware ADS-B (EGLW)
08:17AM 51.5014 -1.2878 277° West 515 593 34,000  Level FlightAware ADS-B
08:17AM 51.5025 -1.2999 277° West 514 592 34,000  Level FlightAware ADS-B (EGHI / SOU)
08:17AM 51.5063 -1.3390 279° West 515 593 34,000  Level FlightAware ADS-B (EGLF / FAB)
08:17AM 51.5087 -1.3615 279° West 513 590 34,000  Level FlightAware ADS-B (EGKA / ESH)
08:17AM 51.5133 -1.4011 281° West 514 592 34,000  Level FlightAware ADS-B
08:17AM 51.5146 -1.4116 282° West 513 590 34,000  Level FlightAware ADS-B (EGLF / FAB)
08:17AM 51.5177 -1.4346 281° West 511 588 34,000  Level FlightAware ADS-B
08:18AM 51.5212 -1.4590 284° West 512 589 34,000  Level FlightAware ADS-B (EGLC / LCY)
08:18AM 51.5246 -1.4819 284° West 513 590 34,000  Level FlightAware ADS-B (EGFH / SWS)
08:18AM 51.5295 -1.5135 284° West 512 589 34,000  Level FlightAware ADS-B
08:18AM 51.5323 -1.5303 285° West 511 588 34,000  Level FlightAware ADS-B (EGLF / FAB)
08:18AM 51.5415 -1.5844 285° West 509 586 34,000  Level FlightAware ADS-B (EGKK / LGW)
08:18AM 51.5436 -1.5968 286° West 512 589 34,000  Level FlightAware ADS-B (EGLF / FAB)
08:18AM 51.5482 -1.6230 286° West 511 588 34,000  Level FlightAware ADS-B
08:18AM 51.5532 -1.6515 285° West 509 586 34,000  Level FlightAware ADS-B (EGUO)
08:18AM 51.5550 -1.6616 286° West 511 588 34,000  Level FlightAware ADS-B (EGLF / FAB)
08:19AM 51.5583 -1.6805 286° West 511 588 34,000  Level FlightAware ADS-B (EGLF / FAB)
08:19AM 51.5676 -1.7329 286° West 510 587 34,000  Level FlightAware ADS-B
08:19AM 51.5697 -1.7446 286° West 511 588 34,000  Level FlightAware ADS-B (EPRZ / RZE)
08:19AM 51.5837 -1.8183 286° West 508 585 34,000  Level FlightAware ADS-B (EGBJ / GLO)
08:19AM 51.5883 -1.8421 287° West 509 586 34,000  Level FlightAware ADS-B
08:20AM 51.5986 -1.8954 286° West 507 583 34,000  Level FlightAware ADS-B (EGHO)
08:20AM 51.6093 -1.9508 287° West 508 585 34,000  Level FlightAware ADS-B
08:20AM 51.6064 -1.9357 287° West 509 586 34,000  Level FlightAware ADS-B (EGGP / LPL)
08:20AM 51.6370 -2.0957 287° West 509 586 34,000  Level FlightAware ADS-B
08:21AM 51.6415 -2.1195 287° West 509 586 34,000  Level FlightAware ADS-B (EGBS)
08:21AM 51.6634 -2.2373 287° West 508 585 34,000  Level FlightAware ADS-B
08:21AM 51.6656 -2.2489 287° West 508 585 34,000  Level FlightAware ADS-B (EGFH / SWS)
08:22AM 51.6849 -2.3538 286° West 508 585 34,000  Level FlightAware ADS-B
08:22AM 51.6888 -2.3748 287° West 508 585 34,000  Level FlightAware ADS-B
08:22AM 51.6908 -2.3857 287° West 508 585 34,000  Level FlightAware ADS-B (EGHS)
08:22AM 51.7048 -2.4625 286° West 509 586 34,000  Level FlightAware ADS-B
08:22AM 51.7146 -2.5162 286° West 509 586 34,000  Level FlightAware ADS-B (EGHD / PLH)
08:23AM 51.7173 -2.5314 285° West 507 583 34,000  Level FlightAware ADS-B (EGHI / SOU)
08:23AM 51.7211 -2.5525 285° West 507 583 34,000  Level FlightAware ADS-B (EGUO)
08:23AM 51.7261 -2.5801 286° West 509 586 34,000  Level FlightAware ADS-B
08:23AM 51.7349 -2.6288 285° West 508 585 34,000  Level FlightAware ADS-B (EGUO)
08:23AM 51.7387 -2.6499 285° West 508 585 34,000  Level FlightAware ADS-B
08:23AM 51.7412 -2.6638 285° West 508 585 34,000  Level FlightAware ADS-B (EGBJ / GLO)
08:23AM 51.7482 -2.7024 286° West 510 587 34,000  Level FlightAware ADS-B
08:23AM 51.7511 -2.7192 285° West 508 585 34,000  Level FlightAware ADS-B
08:23AM 51.7558 -2.7438 286° West 510 587 34,000  Level FlightAware ADS-B (EGHG)
08:24AM 51.7655 -2.7821 294° West 506 582 34,000  Level FlightAware ADS-B
08:24AM 51.7878 -2.8494 285° West 508 585 34,000  Level FlightAware ADS-B (EGCB)
08:24AM 51.7905 -2.8573 299° West 503 579 34,000  Level FlightAware ADS-B (EGHD / PLH)
08:25AM 51.8240 -2.9557 298° West 503 579 34,000  Level FlightAware ADS-B (EGNA)
08:25AM 51.8318 -2.9796 297° West 499 574 34,000  Level FlightAware ADS-B (EGHO)
08:25AM 51.8481 -3.0301 299° West 503 579 34,000  Level FlightAware ADS-B
08:25AM 51.8642 -3.0810 297° West 504 580 34,000  Level FlightAware ADS-B (EGUO)
08:26AM 51.8861 -3.1524 295° West 502 578 34,000  Level FlightAware ADS-B
08:26AM 51.8979 -3.1917 295° West 502 578 34,000  Level FlightAware ADS-B (EGBJ / GLO)
08:26AM 51.9192 -3.2586 297° West 504 580 34,000  Level FlightAware ADS-B
08:26AM 51.9244 -3.2738 299° West 505 581 34,000  Level FlightAware ADS-B (EGDX / DGX)
08:27AM 51.9632 -3.3889 299° West 504 580 34,000  Level FlightAware ADS-B (EGBS)
08:27AM 52.0083 -3.5246 298° West 506 582 34,000  Level FlightAware ADS-B (EGHD / PLH)
08:28AM 52.0301 -3.5907 297° West 503 579 34,000  Level FlightAware ADS-B (EGHO)
08:28AM 52.0349 -3.6055 297° West 503 579 34,000  Level FlightAware ADS-B
08:28AM 52.0391 -3.6182 297° West 503 579 34,000  Level FlightAware ADS-B (EGHO)
08:28AM 52.0732 -3.7230 298° West 508 585 34,000  Level FlightAware ADS-B
08:29AM 52.0938 -3.7863 297° West 505 581 34,000  Level FlightAware ADS-B
08:29AM 52.1050 -3.8207 297° West 505 581 34,000  Level FlightAware ADS-B
08:29AM 52.1157 -3.8538 297° West 506 582 34,000  Level FlightAware ADS-B
08:29AM 52.1313 -3.9018 297° West 506 582 34,000  Level FlightAware ADS-B (EGDX / DGX)
08:30AM 52.1509 -3.9621 297° West 507 583 34,000  Level FlightAware ADS-B
08:30AM 52.1732 -4.0313 297° West 507 583 34,000  Level FlightAware ADS-B
08:30AM 52.1836 -4.0639 297° West 508 585 34,000  Level FlightAware ADS-B
08:30AM 52.2053 -4.1312 297° West 508 585 34,000  Level FlightAware ADS-B
08:31AM 52.2149 -4.1612 298° West 511 588 34,000  Level FlightAware ADS-B (EGBS)
08:31AM 52.2279 -4.2014 298° West 511 588 34,000  Level FlightAware ADS-B (EGBS)
08:31AM 52.2377 -4.2321 297° West 508 585 34,000  Level FlightAware ADS-B
08:31AM 52.2718 -4.3384 298° West 512 589 34,000  Level FlightAware ADS-B (EGBS)
08:32AM 52.2910 -4.3985 298° West 512 589 34,000  Level FlightAware ADS-B (EGBS)
08:32AM 52.2965 -4.4157 297° West 508 585 34,000  Level FlightAware ADS-B (EGDX / DGX)
08:32AM 52.3386 -4.5484 297° West 511 588 34,000  Level FlightAware ADS-B (EGBS)
08:33AM 52.3694 -4.6457 297° West 512 589 34,000  Level FlightAware ADS-B (EGOD)
08:33AM 52.4025 -4.7506 297° West 511 588 34,000  Level FlightAware ADS-B (EGBS)
08:34AM 52.4495 -4.9003 297° West 511 588 34,000  Level FlightAware ADS-B (EGBS)
08:35AM 52.4896 -5.0290 297° West 512 589 34,000  Level FlightAware ADS-B (EGBS)
08:35AM 52.5228 -5.1359 297° West 512 589 34,000  Level FlightAware ADS-B (EGOD)
08:36AM 52.5563 -5.2445 297° West 513 590 34,000  Level FlightAware ADS-B (EGAA / BFS)
08:36AM 52.5923 -5.3620 296° West 510 587 34,000  Level FlightAware ADS-B (EGPK / PIK)
08:36AM 52.5930 -5.3640 297° West 514 592 34,000  Level FlightAware ADS-B (EGBS)
08:37AM 52.6328 -5.4943 297° West 514 592 34,000  Level FlightAware ADS-B (EGAA / BFS)
08:37AM 52.6658 -5.6017 297° West 514 592 34,000  Level FlightAware UK
08:38AM 52.6701 -5.6172 297° West 514 592 34,000  Level FlightAware ADS-B (EGOD)
08:38AM 52.7024 -5.7235 297° West 515 593 34,000  Level FlightAware ADS-B (EGPK / PIK)
08:39AM 52.7457 -5.8673 296° West 515 593 34,000  Level FlightAware ADS-B (EGAA / BFS)
08:39AM 52.7786 -5.9772 296° West 516 594 34,000  Level FlightAware ADS-B (EGOD)
08:40AM 52.8101 -6.0829 296° West 516 594 34,000  Level FlightAware ADS-B (EGAA / BFS)
08:40AM 52.8465 -6.2059 296° West 517 595 34,000  Level FlightAware ADS-B (EGAA / BFS)
08:41AM 52.8822 -6.3269 296° West 517 595 34,000  Level FlightAware ADS-B (EGAA / BFS)
08:41AM 52.9139 -6.4346 296° West 516 594 34,000  Level FlightAware ADS-B (EGAA / BFS)
08:42AM 52.9460 -6.5444 296° West 515 593 34,000  Level FlightAware ADS-B (EGAA / BFS)
08:43AM 52.9835 -6.6735 296° West 515 593 34,000  Level FlightAware ADS-B (EIDW / DUB)
08:43AM 53.0138 -6.7779 295° West 515 593 34,000  Level FlightAware ADS-B (EGAA / BFS)
08:44AM 53.0604 -6.9404 295° West 516 594 34,000  Level FlightAware ADS-B (EGAA / BFS)
08:44AM 53.0927 -7.0531 295° West 516 594 34,000  Level FlightAware ADS-B (EGAA / BFS)
08:45AM 53.1301 -7.1840 295° West 517 595 34,000  Level FlightAware ADS-B (EGAA / BFS)
08:45AM 53.1616 -7.2951 295° West 516 594 34,000  Level FlightAware ADS-B (EGAA / BFS)
08:46AM 53.1938 -7.4093 295° West 517 595 34,000  Level FlightAware ADS-B (EICK / ORK)
08:47AM 53.2259 -7.5238 295° West 518 596 34,000  Level FlightAware ADS-B (EGAA / BFS)
08:47AM 53.2615 -7.6515 295° West 517 595 34,000  Level FlightAware ADS-B (EICK / ORK)
08:48AM 53.2918 -7.7608 294° West 514 592 34,000  Level FlightAware ADS-B (EGPF / GLA)
08:48AM 53.3219 -7.8694 295° West 519 597 34,000  Level FlightAware ADS-B (EICK / ORK)
08:49AM 53.3564 -7.9944 295° West 518 596 34,000  Level FlightAware UK
08:49AM 53.3594 -8.0060 295° West 519 597 34,000  Level FlightAware ADS-B (EICK / ORK)
08:49AM 53.3902 -8.1189 295° West 519 597 34,000  Level FlightAware ADS-B (EGAA / BFS)
08:50AM 53.4207 -8.2313 294° West 519 597 34,000  Level FlightAware ADS-B (EICK / ORK)
08:50AM 53.4512 -8.3439 294° West 519 597 34,000  Level FlightAware ADS-B (EICK / ORK)
08:51AM 53.4903 -8.4888 294° West 520 598 34,000  Level FlightAware ADS-B (EICK / ORK)
08:51AM 53.5215 -8.6055 294° West 519 597 34,000  Level FlightAware ADS-B (EGAA / BFS)
08:52AM 53.5588 -8.7457 294° West 519 597 34,000  Level FlightAware ADS-B (EICK / ORK)
08:53AM 53.5866 -8.8508 294° West 518 596 34,000  Level FlightAware ADS-B (EICK / ORK)
08:53AM 53.6178 -8.9691 294° West 518 596 34,000  Level FlightAware ADS-B (EICK / ORK)
08:54AM 53.6546 -9.1098 294° West 519 597 34,000  Level FlightAware ADS-B (EICK / ORK)
08:54AM 53.6848 -9.2257 294° West 519 597 34,000  Level FlightAware ADS-B (EICK / ORK)
08:55AM 53.7132 -9.3352 294° West 520 598 34,000  Level FlightAware ADS-B (EICK / ORK)
08:55AM 53.7420 -9.4469 294° West 519 597 34,000  Level FlightAware ADS-B (EICK / ORK)
08:56AM 53.7819 -9.6027 293° West 518 596 34,000  Level FlightAware ADS-B (EICK / ORK)
08:58AM 53.9014 -10.0756 292° West 517 595 34,000  Level FlightAware ADS-B (EGAE / LDY)
09:02AM 54.0676 -10.7506 292° West 520 598 34,300  Climbing FlightAware ADS-B (EICK / ORK)
09:41AM 56.0000 -20.0000 294° West 485 558 36,000  Climbing ETMS Enhanced Traffic Management System
09:42AM 55.4557 -18.9719 283° West  Level Estimated
09:43AM 55.4838 -19.1896 283° West  Level Estimated
09:44AM 55.5116 -19.4076 283° West  Level Estimated
09:45AM 55.5389 -19.6259 283° West  Level Estimated
09:46AM 55.5659 -19.8445 282° West  Level Estimated
09:47AM 55.5924 -20.0634 282° West  Level Estimated
09:48AM 56.3788 -21.5529 293° West 485 558 36,000  Level FlightAware Transoceanic
09:49AM 56.4313 -21.7772 293° West 485 558 36,000  Level FlightAware Transoceanic
09:50AM 56.4834 -22.0021 293° West 485 558 36,000  Level FlightAware Transoceanic
09:51AM 56.5351 -22.2277 292° West 485 558 36,000  Level FlightAware Transoceanic
09:52AM 56.5863 -22.4539 292° West 485 558 36,000  Level FlightAware Transoceanic
09:53AM 56.6372 -22.6807 292° West 485 558 36,000  Level FlightAware Transoceanic
09:54AM 56.6877 -22.9081 292° West 485 558 36,000  Level FlightAware Transoceanic
09:55AM 56.7377 -23.1361 292° West 485 558 36,000  Level FlightAware Transoceanic
09:56AM 56.7873 -23.3647 292° West 485 558 36,000  Level FlightAware Transoceanic
09:57AM 56.8366 -23.5939 291° West 485 558 36,000  Level FlightAware Transoceanic
09:58AM 56.8853 -23.8237 291° West 485 558 36,000  Level FlightAware Transoceanic
09:59AM 56.9337 -24.0541 291° West 485 558 36,000  Level FlightAware Transoceanic
10:00AM 56.9817 -24.2852 291° West 485 558 36,000  Level FlightAware Transoceanic
10:01AM 57.0292 -24.5168 291° West 485 558 36,000  Level FlightAware Transoceanic
10:02AM 57.0762 -24.7489 290° West 485 558 36,000  Level FlightAware Transoceanic
10:03AM 57.1229 -24.9817 290° West 485 558 36,000  Level FlightAware Transoceanic
10:04AM 57.1691 -25.2151 290° West 485 558 36,000  Level FlightAware Transoceanic
10:05AM 57.2149 -25.4490 290° West 485 558 36,000  Level FlightAware Transoceanic
10:06AM 57.2603 -25.6836 290° West 485 558 36,000  Level FlightAware Transoceanic
10:07AM 57.3052 -25.9187 289° West 485 558 36,000  Level FlightAware Transoceanic
10:08AM 57.3497 -26.1544 289° West 485 558 36,000  Level FlightAware Transoceanic
10:09AM 57.3937 -26.3906 289° West 485 558 36,000  Level FlightAware Transoceanic
10:10AM 57.4373 -26.6274 289° West 485 558 36,000  Level FlightAware Transoceanic
10:11AM 57.4804 -26.8648 289° West 485 558 36,000  Level FlightAware Transoceanic
10:12AM 57.5231 -27.1027 288° West 485 558 36,000  Level FlightAware Transoceanic
10:13AM 57.5654 -27.3412 288° West 485 558 36,000  Level FlightAware Transoceanic
10:14AM 57.6072 -27.5802 288° West 485 558 36,000  Level FlightAware Transoceanic
10:15AM 57.6485 -27.8198 288° West 485 558 36,000  Level FlightAware Transoceanic
10:16AM 57.6894 -28.0599 288° West 485 558 36,000  Level FlightAware Transoceanic
10:17AM 57.7298 -28.3006 287° West 485 558 36,000  Level FlightAware Transoceanic
10:18AM 57.7698 -28.5418 287° West 485 558 36,000  Level FlightAware Transoceanic
10:19AM 57.8093 -28.7835 287° West 485 558 36,000  Level FlightAware Transoceanic
10:20AM 57.8484 -29.0258 287° West 485 558 36,000  Level FlightAware Transoceanic
10:21AM 57.8870 -29.2686 287° West 485 558 36,000  Level FlightAware Transoceanic
10:22AM 57.9251 -29.5119 286° West 485 558 36,000  Level FlightAware Transoceanic
10:23AM 57.9628 -29.7557 286° West 485 558 36,000  Level FlightAware Transoceanic
10:24AM 57.9977 -29.9851 286° West  Level FlightAware Approximate
10:25AM 58.0323 -30.2150 286° West  Level FlightAware Approximate
10:26AM 58.0456 -30.1893 295° West  Level FlightAware Approximate
10:27AM 58.0977 -30.4074 294° West  Level FlightAware Approximate
10:28AM 58.1493 -30.6257 294° West  Level FlightAware Approximate
10:29AM 58.2005 -30.8447 294° West  Level FlightAware Approximate
10:30AM 58.2513 -31.0643 294° West  Level FlightAware Approximate
10:31AM 58.3018 -31.2846 294° West  Level FlightAware Approximate
10:32AM 58.3538 -31.5037 295° West  Level FlightAware Approximate
10:33AM 58.4064 -31.7229 295° West  Level FlightAware Approximate
10:34AM 58.4585 -31.9426 294° West  Level FlightAware Approximate
10:35AM 58.5103 -32.1630 294° West  Level FlightAware Approximate
10:36AM 58.5617 -32.3841 294° West  Level FlightAware Approximate
10:37AM 58.6127 -32.6058 294° West  Level FlightAware Approximate
10:38AM 58.6633 -32.8282 294° West  Level FlightAware Approximate
10:39AM 58.7136 -33.0512 294° West  Level FlightAware Approximate
10:40AM 58.7635 -33.2748 293° West  Level FlightAware Approximate
10:41AM 58.8130 -33.4991 293° West  Level FlightAware Approximate
10:42AM 58.8620 -33.7240 293° West  Level FlightAware Approximate
10:43AM 58.9107 -33.9496 293° West  Level FlightAware Approximate
10:44AM 58.9588 -34.1759 292° West  Level FlightAware Approximate
10:45AM 59.0057 -34.4036 292° West  Level FlightAware Approximate
10:46AM 59.0522 -34.6318 292° West  Level FlightAware Approximate
10:47AM 59.0983 -34.8607 291° West  Level FlightAware Approximate
10:48AM 59.1440 -35.0901 291° West  Level FlightAware Approximate
10:49AM 59.1893 -35.3202 291° West  Level FlightAware Approximate
10:50AM 59.2341 -35.5509 291° West  Level FlightAware Approximate
10:51AM 59.2786 -35.7822 291° West  Level FlightAware Approximate
10:52AM 59.3226 -36.0141 291° West  Level FlightAware Approximate
10:53AM 59.3663 -36.2466 290° West  Level FlightAware Approximate
10:54AM 59.4095 -36.4797 290° West  Level FlightAware Approximate
10:55AM 59.4523 -36.7134 290° West  Level FlightAware Approximate
10:56AM 59.4947 -36.9476 290° West  Level FlightAware Approximate
10:57AM 59.5366 -37.1825 290° West  Level FlightAware Approximate
10:58AM 59.5782 -37.4179 289° West  Level FlightAware Approximate
10:59AM 59.6193 -37.6539 289° West  Level FlightAware Approximate
11:00AM 59.6600 -37.8905 289° West  Level FlightAware Approximate
11:01AM 59.7003 -38.1277 289° West  Level FlightAware Approximate
11:02AM 59.7401 -38.3655 288° West  Level FlightAware Approximate
11:03AM 59.7795 -38.6037 288° West  Level FlightAware Approximate
11:04AM 59.8185 -38.8426 288° West  Level FlightAware Approximate
11:05AM 59.8570 -39.0820 288° West  Level FlightAware Approximate
11:06AM 59.8951 -39.3220 288° West  Level FlightAware Approximate
11:07AM 59.9328 -39.5625 287° West  Level FlightAware Approximate
11:08AM 59.9701 -39.8036 287° West  Level FlightAware Approximate
11:09AM 60.0064 -40.0454 286° West  Level FlightAware Approximate
11:10AM 60.0404 -40.2894 286° West  Level FlightAware Approximate
11:11AM 60.0740 -40.5339 285° West  Level FlightAware Approximate
11:12AM 60.1071 -40.7788 285° West  Level FlightAware Approximate
11:13AM 60.1398 -41.0243 285° West  Level FlightAware Approximate
11:14AM 60.1720 -41.2702 285° West  Level FlightAware Approximate
11:15AM 60.2038 -41.5167 285° West  Level FlightAware Approximate
11:16AM 60.2351 -41.7635 284° West  Level FlightAware Approximate
11:17AM 60.2660 -42.0109 284° West  Level FlightAware Approximate
11:18AM 60.2963 -42.2587 284° West  Level FlightAware Approximate
11:19AM 60.3263 -42.5070 284° West  Level FlightAware Approximate
11:20AM 60.3557 -42.7557 284° West  Level FlightAware Approximate
11:21AM 60.3847 -43.0049 283° West  Level FlightAware Approximate
11:22AM 60.4133 -43.2546 283° West  Level FlightAware Approximate
11:23AM 60.4413 -43.5046 283° West  Level FlightAware Approximate
11:24AM 60.4689 -43.7551 283° West  Level FlightAware Approximate
11:25AM 60.4961 -44.0060 282° West  Level FlightAware Approximate
11:26AM 60.5228 -44.2573 282° West  Level FlightAware Approximate
11:27AM 60.5492 -44.5089 282° West  Level FlightAware Approximate
11:28AM 60.5751 -44.7610 282° West  Level FlightAware Approximate
11:29AM 60.6006 -45.0134 282° West  Level FlightAware Approximate
11:30AM 60.6255 -45.2663 281° West  Level FlightAware Approximate
11:31AM 60.6501 -45.5195 281° West  Level FlightAware Approximate
11:32AM 60.6741 -45.7731 281° West  Level FlightAware Approximate
11:33AM 60.6976 -46.0271 281° West  Level FlightAware Approximate
11:34AM 60.7207 -46.2814 281° West  Level FlightAware Approximate
11:35AM 60.7433 -46.5362 280° West  Level FlightAware Approximate
11:36AM 60.7654 -46.7912 280° West  Level FlightAware Approximate
11:37AM 60.7870 -47.0466 280° West  Level FlightAware Approximate
11:38AM 60.8081 -47.3024 280° West  Level FlightAware Approximate
11:39AM 60.8288 -47.5585 279° West  Level FlightAware Approximate
11:40AM 60.8489 -47.8149 279° West  Level FlightAware Approximate
11:41AM 60.8686 -48.0716 279° West  Level FlightAware Approximate
11:42AM 60.8882 -48.3352 279° West  Level FlightAware Approximate
11:43AM 60.9074 -48.5992 279° West  Level FlightAware Approximate
11:44AM 60.9260 -48.8634 278° West  Level FlightAware Approximate
11:45AM 60.9441 -49.1279 278° West  Level FlightAware Approximate
11:46AM 60.9617 -49.3927 278° West  Level FlightAware Approximate
11:47AM 60.9788 -49.6579 278° West  Level FlightAware Approximate
11:48AM 60.9953 -49.9233 277° West  Level FlightAware Approximate
11:49AM 61.0067 -50.1899 274° West  Level FlightAware Approximate
11:50AM 61.0156 -50.4570 274° West  Level FlightAware Approximate
11:51AM 61.0238 -50.7177 274° West  Level FlightAware Approximate
11:52AM 61.0314 -50.9785 274° West  Level FlightAware Approximate
11:53AM 61.0386 -51.2394 273° West  Level FlightAware Approximate
11:54AM 61.0453 -51.5004 273° West  Level FlightAware Approximate
11:55AM 61.0515 -51.7616 273° West  Level FlightAware Approximate
11:56AM 61.0571 -52.0228 273° West  Level FlightAware Approximate
11:57AM 61.0623 -52.2841 272° West  Level FlightAware Approximate
11:58AM 61.0670 -52.5455 272° West  Level FlightAware Approximate
11:59AM 61.0711 -52.8070 272° West  Level FlightAware Approximate
12:00PM 61.0748 -53.0686 272° West  Level FlightAware Approximate
12:01PM 61.0779 -53.3302 272° West  Level FlightAware Approximate
12:02PM 61.0806 -53.5918 271° West  Level FlightAware Approximate
12:03PM 61.0827 -53.8535 271° West  Level FlightAware Approximate
12:04PM 61.0843 -54.1152 271° West  Level FlightAware Approximate
12:05PM 61.0854 -54.3769 271° West  Level FlightAware Approximate
12:06PM 61.0860 -54.6387 270° West  Level FlightAware Approximate
12:07PM 61.0861 -54.9005 270° West  Level FlightAware Approximate
12:08PM 61.0857 -55.1622 270° West  Level FlightAware Approximate
12:09PM 61.0848 -55.4306 270° West  Level FlightAware Approximate
12:10PM 61.0833 -55.6990 269° West  Level FlightAware Approximate
12:11PM 61.0821 -55.9673 270° West  Level FlightAware Approximate
12:12PM 61.0804 -56.2357 269° West  Level FlightAware Approximate
12:12PM 61.1000 -56.2000 268° West 220 253 36,000  Level Gander Center
12:13PM 61.0782 -56.5040 269° West  Level FlightAware Approximate
12:13PM 61.1000 -56.4333 270° West 420 483 36,000  Level Gander Center
12:14PM 61.0754 -56.7722 269° West  Level FlightAware Approximate
12:14PM 61.1000 -56.7167 270° West 440 506 36,000  Level Gander Center
12:15PM 61.0721 -57.0405 269° West  Level FlightAware Approximate
12:15PM 61.1000 -56.9500 270° West 450 518 36,000  Level Gander Center
12:16PM 61.0682 -57.3086 268° West  Level FlightAware Approximate
12:16PM 61.0833 -57.2333 263° West 460 529 36,000  Level Gander Center
12:17PM 61.0638 -57.5767 268° West  Level FlightAware Approximate
12:17PM 61.1000 -57.5000 277° West 470 541 36,000  Level Gander Center
12:18PM 61.0833 -57.7833 263° West 470 541 36,000  Level Gander Center
12:19PM 61.0667 -58.0167 262° West 460 529 36,000  Level Gander Center
12:20PM 61.0333 -58.3000 256° West 460 529 36,000  Level Gander Center
12:21PM 61.0000 -58.5333 254° West 460 529 36,000  Level Gander Center
12:22PM 60.9667 -58.7500 252° West 460 529 36,000  Level Montreal Center
12:23PM 60.9500 -59.0000 262° West 470 541 36,000  Level Montreal Center
12:23PM 60.9333 -59.1667 258° West 460 529 36,000  Level Gander Center
12:24PM 60.9167 -59.2667 251° West 470 541 36,000  Level Montreal Center
12:25PM 60.8667 -59.5000 246° West 460 529 36,000  Level Montreal Center
12:25PM 60.8667 -59.6833 270° West 460 529 36,000  Level Gander Center
12:26PM 60.8500 -59.8167 256° West 460 529 36,000  Level Gander Center
12:27PM 60.8333 -60.0167 260° West 460 529 36,000  Level Montreal Center
12:28PM 60.8000 -60.2833 256° West 460 529 36,000  Level Montreal Center
12:29PM 60.7667 -60.5333 255° West 460 529 36,000  Level Montreal Center
12:30PM 60.7333 -60.7667 254° West 450 518 36,000  Level Montreal Center
12:31PM 60.6833 -61.0333 249° West 450 518 36,000  Level Montreal Center
12:32PM 60.6667 -61.2833 262° West 460 529 36,000  Level Montreal Center
12:33PM 60.6167 -61.5167 246° West 460 529 36,000  Level Montreal Center
12:33PM 60.6167 -61.6833 270° West 460 529 36,000  Level Gander Center
12:34PM 60.6000 -61.8167 256° West 460 529 36,000  Level Gander Center
12:35PM 60.5667 -62.0667 255° West 460 529 36,000  Level Gander Center
12:36PM 60.5333 -62.2833 253° West 460 529 36,000  Level Montreal Center
12:37PM 60.5000 -62.5000 253° West 450 518 36,000  Level Montreal Center
12:37PM 60.4833 -62.7333 262° West 460 529 36,000  Level Gander Center
12:38PM 60.4333 -62.9667 247° West 460 529 36,000  Level Gander Center
12:39PM 60.4167 -63.1000 256° West 460 529 36,000  Level Gander Center
12:40PM 60.3833 -63.3667 256° West 460 529 36,000  Level Gander Center
12:41PM 60.3500 -63.6000 254° West 460 529 36,000  Level Gander Center
12:42PM 60.3167 -63.7833 250° West 450 518 36,000  Level Montreal Center
12:43PM 60.2667 -64.0000 245° Southwest 450 518 36,000  Level Montreal Center
12:44PM 60.2333 -64.2500 255° West 460 529 36,000  Level Montreal Center
12:45PM 60.2000 -64.5000 255° West 460 529 36,000  Level Montreal Center
12:46PM 60.1500 -64.7167 245° Southwest 460 529 36,000  Level Montreal Center
12:46PM 60.1333 -64.9167 261° West 470 541 36,000  Level Gander Center
12:47PM 60.1000 -65.1500 254° West 470 541 36,000  Level Gander Center
12:48PM 60.0833 -65.2167 243° Southwest 470 541 36,000  Level Montreal Center
12:48PM 60.0500 -65.4167 252° West 470 541 36,000  Level Gander Center
12:49PM 60.0000 -65.6333 245° Southwest 470 541 36,000  Level Gander Center
12:50PM 59.9667 -65.8000 248° West 470 541 36,000  Level Gander Center
12:51PM 59.9167 -65.9833 242° Southwest 470 541 36,000  Level Montreal Center
12:52PM 59.8667 -66.2000 245° Southwest 470 541 36,000  Level Montreal Center
12:52PM 59.8333 -66.3833 250° West 470 541 36,000  Level Gander Center
12:53PM 59.8000 -66.4167 207° Southwest 470 541 36,000  Level Montreal Center
12:54PM 59.6833 -66.5833 216° Southwest 480 552 36,000  Level Montreal Center
12:55PM 59.5500 -66.9333 233° Southwest 480 552 36,000  Level Gander Center
12:56PM 59.4667 -67.1167 228° Southwest 480 552 36,000  Level Gander Center
12:57PM 59.4167 -67.1667 207° Southwest 480 552 36,000  Level Montreal Center
12:57PM 59.3667 -67.3000 234° Southwest 480 552 36,000  Level Gander Center
12:58PM 59.2833 -67.4833 228° Southwest 490 564 36,000  Level Gander Center
12:59PM 59.2333 -67.5000 190° South 480 552 36,000  Level Montreal Center
01:00PM 59.1333 -67.7000 226° Southwest 480 552 36,000  Level Montreal Center
01:00PM 59.1000 -67.8667 249° West 480 552 36,000  Level Gander Center
01:01PM 59.0500 -67.8833 190° South 480 552 36,000  Level Montreal Center
01:02PM 58.9500 -68.0667 223° Southwest 480 552 36,000  Level Montreal Center
01:03PM 58.8500 -68.2833 228° Southwest 480 552 36,000  Level Montreal Center
01:04PM 58.7667 -68.4667 229° Southwest 480 552 36,000  Level Montreal Center
01:05PM 58.6667 -68.6167 218° Southwest 480 552 36,000  Level Montreal Center
01:06PM 58.5667 -68.8000 224° Southwest 470 541 36,000  Level Montreal Center
01:07PM 58.4667 -68.9833 224° Southwest 470 541 36,000  Level Montreal Center
01:08PM 58.3833 -69.1500 226° Southwest 470 541 36,000  Level Montreal Center
01:09PM 58.2833 -69.3333 224° Southwest 470 541 36,000  Level Montreal Center
01:10PM 58.2000 -69.5167 229° Southwest 470 541 36,000  Level Montreal Center
01:11PM 58.0833 -69.6833 217° Southwest 470 541 36,000  Level Montreal Center
01:12PM 57.9833 -69.8667 224° Southwest 470 541 36,000  Level Montreal Center
01:13PM 57.9000 -70.0000 220° Southwest 470 541 36,000  Level Montreal Center
01:14PM 57.8000 -70.1833 224° Southwest 460 529 36,000  Level Montreal Center
01:15PM 57.7167 -70.3500 227° Southwest 470 541 36,000  Level Montreal Center
01:16PM 57.6167 -70.5167 222° Southwest 470 541 36,000 540 Level Montreal Center
01:17PM 57.5167 -70.7000 225° Southwest 470 541 37,100 900 Climbing Montreal Center
01:18PM 57.4333 -70.8333 221° Southwest 470 541 37,900 420 Climbing Montreal Center
01:19PM 57.3333 -71.0000 222° Southwest 470 541 38,000  Climbing Montreal Center
01:20PM 57.2333 -71.1667 222° Southwest 470 541 38,000  Level Montreal Center
01:21PM 57.1500 -71.3333 227° Southwest 470 541 38,000  Level Montreal Center
01:22PM 57.0500 -71.5000 222° Southwest 460 529 38,000  Level Montreal Center
01:23PM 56.9500 -71.6667 222° Southwest 460 529 38,000  Level Montreal Center
01:24PM 56.8500 -71.8333 222° Southwest 460 529 38,000  Level Montreal Center
01:25PM 56.7500 -71.9667 216° Southwest 470 541 38,000  Level Montreal Center
01:26PM 56.6500 -72.1333 223° Southwest 470 541 38,000  Level Montreal Center
01:27PM 56.5500 -72.3000 223° Southwest 470 541 38,000  Level Montreal Center
01:28PM 56.4500 -72.4667 223° Southwest 470 541 38,000  Level Montreal Center
01:29PM 56.3500 -72.6167 220° Southwest 470 541 38,000  Level Montreal Center
01:30PM 56.2667 -72.7500 222° Southwest 470 541 38,000  Level Montreal Center
01:31PM 56.1667 -72.9167 223° Southwest 470 541 38,000  Level Montreal Center
01:32PM 56.0667 -73.0667 220° Southwest 470 541 38,000  Level Montreal Center
01:34PM 55.8333 -73.4333 221° Southwest 470 541 38,000  Level Gander Center
01:35PM 55.7333 -73.5833 220° Southwest 480 552 38,000  Level Gander Center
01:36PM 55.6333 -73.7333 220° Southwest 470 541 38,000  Level Gander Center
01:37PM 55.5333 -73.8667 217° Southwest 470 541 38,000  Level Gander Center
01:38PM 55.4333 -74.0167 220° Southwest 470 541 38,000  Level Gander Center
01:39PM 55.3333 -74.1667 220° Southwest 470 541 38,000  Level Gander Center
01:40PM 55.2667 -74.2500 215° Southwest 470 541 38,000  Level Montreal Center
01:41PM 55.1667 -74.4000 221° Southwest 470 541 38,000  Level Montreal Center
01:42PM 55.0667 -74.5500 221° Southwest 460 529 38,000  Level Montreal Center
01:43PM 54.9500 -74.7000 216° Southwest 470 541 38,000  Level Montreal Center
01:44PM 54.8667 -74.8500 226° Southwest 470 541 38,000  Level Montreal Center
01:45PM 54.7500 -75.0000 217° Southwest 470 541 38,000  Level Montreal Center
01:46PM 54.6500 -75.1500 221° Southwest 470 541 38,000  Level Montreal Center
01:47PM 54.5500 -75.3000 221° Southwest 470 541 38,000  Level Montreal Center
01:48PM 54.4500 -75.4167 214° Southwest 470 541 38,000  Level Montreal Center
01:49PM 54.3500 -75.5667 221° Southwest 470 541 38,000  Level Montreal Center
01:50PM 54.2333 -75.7000 214° Southwest 470 541 38,000  Level Montreal Center
01:51PM 54.1333 -75.8500 221° Southwest 470 541 38,000  Level Montreal Center
01:52PM 54.0333 -76.0000 221° Southwest 470 541 38,000  Level Montreal Center
01:53PM 53.9333 -76.1333 218° Southwest 470 541 38,000  Level Montreal Center
01:54PM 53.8333 -76.2833 222° Southwest 480 552 38,000  Level Montreal Center
01:55PM 53.7167 -76.3833 207° Southwest 480 552 38,000  Level Montreal Center
01:56PM 53.6167 -76.5333 222° Southwest 480 552 38,000  Level Montreal Center
01:57PM 53.5000 -76.6667 214° Southwest 480 552 38,000  Level Montreal Center
01:58PM 53.4000 -76.8167 222° Southwest 480 552 38,000  Level Montreal Center
01:59PM 53.3000 -76.9500 219° Southwest 480 552 38,000  Level Montreal Center
02:00PM 53.1833 -77.0833 214° Southwest 480 552 38,000  Level Montreal Center
02:01PM 53.0833 -77.2333 222° Southwest 480 552 38,000  Level Montreal Center
02:02PM 52.9667 -77.3667 215° Southwest 480 552 38,000  Level Montreal Center
02:03PM 52.8667 -77.5000 219° Southwest 480 552 38,000  Level Montreal Center
02:04PM 52.7500 -77.6333 215° Southwest 480 552 38,000  Level Montreal Center
02:05PM 52.6500 -77.7667 219° Southwest 480 552 38,000  Level Montreal Center
02:06PM 52.5500 -77.9000 219° Southwest 480 552 38,000  Level Montreal Center
02:07PM 52.4333 -78.0333 215° Southwest 480 552 38,000  Level Montreal Center
02:08PM 52.3333 -78.1667 219° Southwest 480 552 38,000  Level Montreal Center
02:09PM 52.2167 -78.3000 215° Southwest 480 552 38,000  Level Montreal Center
02:10PM 52.1167 -78.4000 212° Southwest 480 552 38,000  Level Montreal Center
02:11PM 52.0000 -78.5333 215° Southwest 480 552 38,000  Level Montreal Center
02:12PM 51.9000 -78.6667 219° Southwest 470 541 38,000  Level Montreal Center
02:13PM 51.8000 -78.8000 220° Southwest 480 552 38,000  Level Montreal Center
02:14PM 51.6833 -78.9167 212° Southwest 470 541 38,000  Level Montreal Center
02:15PM 51.5833 -79.0500 220° Southwest 480 552 38,000  Level Montreal Center
02:16PM 51.4667 -79.1833 215° Southwest 480 552 38,000  Level Montreal Center
02:17PM 51.3500 -79.3000 212° Southwest 480 552 38,000  Level Montreal Center
02:18PM 51.2333 -79.4333 216° Southwest 480 552 38,000  Level Montreal Center
02:19PM 51.1333 -79.5667 220° Southwest 480 552 38,000  Level Montreal Center
02:20PM 51.0333 -79.6833 216° Southwest 490 564 38,000  Level Montreal Center
02:21PM 50.9167 -79.8167 216° Southwest 480 552 38,000  Level Montreal Center
02:22PM 50.8167 -79.9333 216° Southwest 480 552 38,000  Level Montreal Center
02:23PM 50.7000 -80.0500 212° Southwest 480 552 38,000  Level Montreal Center
02:24PM 50.5833 -80.1833 216° Southwest 480 552 38,000  Level Montreal Center
02:25PM 50.4833 -80.3000 217° Southwest 480 552 38,000  Level Montreal Center
02:26PM 50.3667 -80.4167 213° Southwest 480 552 38,000  Level Montreal Center
02:27PM 50.2500 -80.5500 216° Southwest 480 552 38,000  Level Montreal Center
02:28PM 50.1500 -80.6667 217° Southwest 480 552 38,000  Level Montreal Center
02:29PM 50.0167 -80.7500 202° Southwest 490 564 38,000  Level Toronto Center
02:30PM 49.9167 -80.8667 217° Southwest 490 564 38,000  Level Toronto Center
02:31PM 49.8000 -80.9667 209° Southwest 480 552 38,000  Level Toronto Center
02:32PM 49.7000 -81.1000 221° Southwest 490 564 38,000  Level Toronto Center
02:33PM 49.5833 -81.2167 213° Southwest 490 564 38,000  Level Toronto Center
02:34PM 49.4667 -81.3167 209° Southwest 490 564 38,000  Level Toronto Center
02:35PM 49.3667 -81.4500 221° Southwest 490 564 38,000  Level Toronto Center
02:36PM 49.2500 -81.5667 213° Southwest 490 564 38,000  Level Toronto Center
02:37PM 49.1500 -81.6667 213° Southwest 490 564 38,000  Level Toronto Center
02:38PM 49.0333 -81.7833 213° Southwest 490 564 38,000  Level Toronto Center
02:39PM 48.9167 -81.9167 217° Southwest 490 564 38,000  Level Toronto Center
02:40PM 48.8000 -82.0000 205° Southwest 490 564 38,000  Level Toronto Center
02:41PM 48.7000 -82.1833 230° Southwest 490 564 38,000  Level Montreal Center
02:42PM 48.5667 -82.2667 202° Southwest 490 564 38,000  Level Montreal Center
02:43PM 48.4667 -82.3833 218° Southwest 490 564 38,000  Level Montreal Center
02:44PM 48.3500 -82.5000 214° Southwest 490 564 38,000  Level Montreal Center
02:45PM 48.2333 -82.6000 210° Southwest 490 564 38,000  Level Montreal Center
02:46PM 48.1167 -82.6833 206° Southwest 490 564 38,000  Level Toronto Center
02:47PM 47.9833 -82.7667 203° Southwest 500 575 38,000  Level Toronto Center
02:48PM 47.8667 -82.8333 201° Southwest 500 575 38,000  Level Toronto Center
02:49PM 47.7333 -82.9333 207° Southwest 500 575 38,000  Level Toronto Center
02:50PM 47.6000 -83.0000 199° South 500 575 38,000  Level Toronto Center
02:51PM 47.4833 -83.0833 206° Southwest 500 575 38,000  Level Toronto Center
02:52PM 47.3500 -83.1667 203° Southwest 500 575 38,000  Level Toronto Center
02:53PM 47.2333 -83.2333 201° Southwest 500 575 38,000  Level Toronto Center
02:54PM 47.0833 -83.3333 204° Southwest 500 575 38,000  Level Toronto Center
02:55PM 46.9667 -83.4000 201° Southwest 500 575 38,000  Level Toronto Center
02:56PM 46.8333 -83.4500 194° South 500 575 38,000  Level Toronto Center
02:57PM 46.7167 -83.5500 210° Southwest 500 575 38,000  Level Toronto Center
02:58PM 46.5833 -83.6167 199° South 500 575 38,000  Level Toronto Center
02:59PM 46.4500 -83.7000 203° Southwest 500 575 38,000  Level Toronto Center
03:00PM 46.3333 -83.7667 202° Southwest 500 575 38,000  Level Toronto Center
03:01PM 46.1833 -83.8500 201° Southwest 500 575 38,000  Level Toronto Center
03:02PM 46.0667 -83.9167 202° Southwest 500 575 38,000  Level Toronto Center
03:03PM 45.9333 -84.0000 203° Southwest 490 564 38,000  Level Toronto Center
03:04PM 45.8167 -84.0667 202° Southwest 490 564 38,000  Level Toronto Center
03:05PM 45.7000 -84.1167 197° South 490 564 38,000  Level Toronto Center
03:06PM 45.5667 -84.2000 204° Southwest 490 564 38,000  Level Toronto Center
03:07PM 45.4333 -84.2667 199° South 490 564 38,000  Level Toronto Center
03:08PM 45.3000 -84.3500 204° Southwest 490 564 38,000  Level Toronto Center
03:13PM 44.5407 -84.7681 204° Southwest 38,000  Level FlightAware ADS-B
03:14PM 44.4585 -84.8122 201° Southwest 479 551 38,000  Level FlightAware ADS-B
03:15PM 44.3934 -84.8469 201° Southwest 476 548 38,000  Level FlightAware ADS-B
03:15PM 44.2924 -84.9007 201° Southwest 475 547 38,000  Level FlightAware ADS-B
03:16PM 44.2113 -84.9438 201° Southwest 474 545 38,000  Level FlightAware ADS-B
03:17PM 44.1294 -84.9871 201° Southwest 474 545 38,000  Level FlightAware ADS-B
03:17PM 44.0525 -85.0276 201° Southwest 473 544 38,000 -180 Level FlightAware ADS-B
03:18PM 43.9723 -85.0699 201° Southwest 477 549 37,800 -1,440 Descending FlightAware ADS-B
03:19PM 43.8822 -85.1170 201° Southwest 478 550 36,000 -3,300 Descending FlightAware ADS-B
03:19PM 43.7999 -85.1604 203° Southwest 489 563 33,300 -3,360 Descending FlightAware ADS-B
03:20PM 43.7296 -85.2138 217° Southwest 473 544 31,600 -2,520 Descending FlightAware ADS-B
03:21PM 43.6716 -85.2855 228° Southwest 458 527 30,300 -1,260 Descending FlightAware ADS-B
03:21PM 43.6046 -85.3891 229° Southwest 458 527 30,000 -720 Descending FlightAware ADS-B
03:23PM 43.4630 -85.6077 228° Southwest 447 514 28,600 -1,380 Descending FlightAware ADS-B
03:24PM 43.4096 -85.6891 228° Southwest 433 498 26,800 -2,880 Descending FlightAware ADS-B
03:25PM 43.3572 -85.7690 228° Southwest 423 487 24,800 -1,140 Descending FlightAware ADS-B
03:26PM 43.2512 -85.9301 228° Southwest 419 482 24,000 -360 Descending FlightAware ADS-B (KMDW)
03:27PM 43.2017 -86.0049 228° Southwest 417 480 24,000  Level FlightAware ADS-B (KMDW)
03:28PM 43.1605 -86.0670 228° Southwest 418 481 24,000  Level FlightAware ADS-B (KMDW)
03:28PM 43.1100 -86.1431 228° Southwest 419 482 24,000  Level FlightAware ADS-B (KMDW)
03:29PM 43.0687 -86.2051 228° Southwest 421 484 24,000  Level FlightAware ADS-B (KMDW)
03:29PM 43.0312 -86.2613 228° Southwest 422 486 24,000  Level FlightAware ADS-B (KMDW)
03:30PM 42.9911 -86.3213 228° Southwest 424 488 24,000 -420 Level FlightAware ADS-B (KMDW)
03:30PM 42.9493 -86.3839 228° Southwest 431 496 23,600 -900 Descending FlightAware ADS-B (KMDW)
03:31PM 42.8889 -86.4890 233° Southwest 416 479 22,800 -960 Descending FlightAware ADS-B (KMDW)
03:32PM 42.8424 -86.5706 232° Southwest 411 473 22,200 -900 Descending FlightAware ADS-B (KMDW)
03:33PM 42.7949 -86.6520 231° Southwest 408 470 21,500 -960 Descending FlightAware ADS-B (KMDW)
03:33PM 42.7428 -86.7403 232° Southwest 401 461 20,900 -1,620 Descending FlightAware ADS-B (KMDW)
03:34PM 42.7098 -86.7959 231° Southwest 390 449 19,700 -2,640 Descending FlightAware ADS-B (KMDW)
03:35PM 42.6490 -86.8984 231° Southwest 374 430 17,200 -2,760 Descending FlightAware ADS-B (KMDW)
03:35PM 42.6162 -86.9539 231° Southwest 366 421 15,800 -2,820 Descending FlightAware ADS-B (KMDW)
03:36PM 42.5758 -87.0224 231° Southwest 359 413 13,900 -2,820 Descending FlightAware ADS-B (KMDW)
03:36PM 42.5336 -87.0939 231° Southwest 355 409 12,100 -2,640 Descending FlightAware ADS-B (KMDW)
03:37PM 42.5025 -87.1458 231° Southwest 347 399 10,900 -1,500 Descending FlightAware ADS-B (KMDW)
03:37PM 42.4715 -87.1977 231° Southwest 350 403 10,600 -240 Descending FlightAware ADS-B (KMDW)
03:38PM 42.4217 -87.2810 231° Southwest 329 379 10,600  Level FlightAware ADS-B (KMDW)
03:39PM 42.3900 -87.3487 248° West 318 366 10,600  Level FlightAware ADS-B (KMDW)
03:39PM 42.3867 -87.3606 249° West 318 366 10,600  Level FlightAware ADS-B (KPWK)
03:40PM 42.3712 -87.4169 250° West 318 366 10,600  Level FlightAware ADS-B (KMDW)
03:40PM 42.3543 -87.4785 248° West 321 369 10,600  Level FlightAware ADS-B (KMDW)
03:40PM 42.3408 -87.5125 235° Southwest 325 374 10,600 -480 Level FlightAware ADS-B (KMDW)
03:41PM 42.3191 -87.5438 219° Southwest 334 384 10,300 -840 Descending FlightAware ADS-B (KMDW)
03:41PM 42.3065 -87.5571 218° Southwest 331 381 10,200 -900 Descending FlightAware ADS-B (KMDW)
03:41PM 42.2948 -87.5693 218° Southwest 324 373 10,000 -600 Descending FlightAware ADS-B (KMDW)
03:41PM 42.2713 -87.5932 217° Southwest 305 351 9,900  Descending FlightAware ADS-B (KMDW)
03:42PM 42.2493 -87.6153 217° Southwest 284 327 10,000 -300 Climbing FlightAware ADS-B (KMDW)
03:42PM 42.2314 -87.6336 217° Southwest 275 316 9,700 -1,200 Descending FlightAware ADS-B (KMDW)
03:42PM 42.2094 -87.6560 217° Southwest 273 314 9,200 -1,500 Descending FlightAware ADS-B (KMDW)
03:43PM 42.1883 -87.6778 218° Southwest 273 314 8,700 -1,740 Descending FlightAware ADS-B (KMDW)
03:43PM 42.1686 -87.6982 218° Southwest 275 316 8,100 -1,500 Descending FlightAware ADS-B (KMDW)
03:43PM 42.1483 -87.7191 217° Southwest 273 314 7,700 -1,320 Descending FlightAware ADS-B (KMDW)
03:44PM 42.1274 -87.7376 204° Southwest 277 319 7,200 -1,500 Descending FlightAware ADS-B (KMDW)
03:44PM 42.1021 -87.7474 194° South 280 322 6,700 -900 Descending FlightAware ADS-B (KMDW)
03:44PM 42.0777 -87.7559 195° South 283 326 6,600 -180 Descending FlightAware ADS-B (KMDW)
03:45PM 42.0520 -87.7649 195° South 282 325 6,600  Level FlightAware ADS-B (KMDW)
03:45PM 42.0269 -87.7736 194° South 282 325 6,600  Level FlightAware ADS-B (KMDW)
03:45PM 42.0033 -87.7818 194° South 281 323 6,600  Level FlightAware ADS-B (KMDW)
03:46PM 41.9781 -87.7906 195° South 281 323 6,600  Level FlightAware ADS-B (KMDW)
03:46PM 41.9513 -87.7999 195° South 282 325 6,600  Level FlightAware ADS-B (KMDW)
03:47PM 41.9132 -87.8133 195° South 282 325 6,600  Level FlightAware ADS-B (KMDW)
03:47PM 41.8917 -87.8217 205° Southwest 279 321 6,600  Level FlightAware ADS-B (KMDW)
03:47PM 41.8662 -87.8614 252° West 264 304 6,600  Level FlightAware ADS-B (KMDW)
03:48PM 41.8637 -87.8785 264° West 260 299 6,600  Level FlightAware ADS-B (KMDW)
03:48PM 41.8638 -87.8951 275° West 257 296 6,600  Level FlightAware ADS-B (KMDW)
03:48PM 41.8661 -87.9097 286° West 256 295 6,600  Level FlightAware ADS-B (KMDW)
03:48PM 41.8727 -87.9381 288° West 255 293 6,600  Level FlightAware ADS-B (KMDW)
03:49PM 41.8800 -87.9695 286° West 256 295 6,600 -180 Level FlightAware ADS-B (KMDW)
03:49PM 41.8834 -87.9976 274° West 259 298 6,500 -840 Descending FlightAware ADS-B (KMDW)
03:49PM 41.8842 -88.0457 270° West 255 293 5,900 -1,440 Descending FlightAware ADS-B (KMDW)
03:50PM 41.8841 -88.0774 270° West 257 296 5,300 -1,680 Descending FlightAware ADS-B (KMDW)
03:50PM 41.8839 -88.0984 271° West 256 295 4,800 -1,080 Descending FlightAware ADS-B (KMDW)
03:50PM 41.8842 -88.1436 270° West 254 292 4,600 -120 Descending FlightAware ADS-B (KMDW)
03:51PM 41.8839 -88.1916 270° West 249 287 4,700  Climbing FlightAware ADS-B (KMDW)
03:51PM 41.8839 -88.2006 270° West 250 288 4,600 -180 Descending FlightAware ADS-B (KMDW)
03:52PM 41.8838 -88.2654 270° West 257 296 4,600  Level FlightAware ADS-B (KMDW)
03:52PM 41.8841 -88.2925 270° West 256 295 4,600  Level FlightAware ADS-B (KMDW)
03:52PM 41.8841 -88.2916 269° West 256 295 4,600  Level FlightAware ADS-B (KPWK)
03:53PM 41.8845 -88.3763 274° West 259 298 4,600 -300 Level FlightAware ADS-B (KMDW)
03:53PM 41.8969 -88.3992 328° Northwest 240 276 4,400  Descending FlightAware ADS-B (KMDW)
03:54PM 41.9206 -88.4028 16° North 246 283 4,600 300 Climbing FlightAware ADS-B (KMDW)
03:54PM 41.9329 -88.3934 40° Northeast 239 275 4,600  Level FlightAware ADS-B (KMDW)
03:54PM 41.9387 -88.3832 62° Northeast 234 269 4,600  Level FlightAware ADS-B (KMDW)
03:54PM 41.9465 -88.3551 72° East 229 264 4,600  Level FlightAware ADS-B (KMDW)
03:55PM 41.9534 -88.3285 71° East 225 259 4,600  Level FlightAware ADS-B (KMDW)
03:55PM 41.9604 -88.3013 71° East 230 265 4,600  Level FlightAware ADS-B (KMDW)
03:55PM 41.9649 -88.2732 84° East 230 265 4,600 -180 Level FlightAware ADS-B (KMDW)
03:56PM 41.9652 -88.2453 92° East 231 266 4,500 -180 Descending FlightAware ADS-B (KMDW)
03:56PM 41.9643 -88.2164 92° East 234 269 4,500 -360 Level FlightAware ADS-B (KMDW)
03:56PM 41.9642 -88.1892 89° East 236 272 4,300 -960 Descending FlightAware ADS-B (KMDW)
03:57PM 41.9650 -88.1588 87° East 234 269 3,900 -1,320 Descending FlightAware ADS-B (KMDW)
03:57PM 41.9653 -88.1305 91° East 229 264 3,400 -1,200 Descending FlightAware ADS-B (KMDW)
03:57PM 41.9650 -88.1037 91° East 216 249 3,100 -1,080 Descending FlightAware ADS-B (KMDW)
03:58PM 41.9652 -88.0766 89° East 205 236 2,700 -1,140 Descending FlightAware ADS-B (KMDW)
03:58PM 41.9656 -88.0188 89° East 168 193 1,800 -1,080 Descending FlightAware ADS-B (KMDW)
03:59PM 41.9656 -87.9891 91° East 148 170 1,300 -960 Descending FlightAware ADS-B (KMDW)
03:59PM 41.9656 -87.9718 90° East 144 166 1,000 -840 Descending FlightAware ADS-B (KMDW)
04:00PM 41.9657 -87.9330 90° East 144 166 400 -780 Descending FlightAware ADS-B (KMDW)